createdAt,value
2018-12-03T00:01:22.279Z,18.86
2018-12-03T00:04:00.732Z,18.84
2018-12-03T00:06:35.201Z,18.89
2018-12-03T00:09:13.382Z,18.62
2018-12-03T00:11:47.971Z,18.70
2018-12-03T00:14:26.235Z,18.62
2018-12-03T00:17:03.429Z,18.67
2018-12-03T00:19:40.708Z,18.70
2018-12-03T00:22:12.895Z,18.71
2018-12-03T00:24:50.926Z,18.82
2018-12-03T00:27:27.551Z,18.76
2018-12-03T00:30:08.534Z,18.75
2018-12-03T00:32:43.911Z,18.76
2018-12-03T00:35:24.841Z,18.17
2018-12-03T00:37:58.879Z,18.89
2018-12-03T00:40:38.295Z,18.96
2018-12-03T00:43:14.153Z,19.14
2018-12-03T00:45:47.298Z,19.25
2018-12-03T00:48:22.982Z,19.03
2018-12-03T00:50:57.547Z,19.04
2018-12-03T00:53:34.264Z,18.99
2018-12-03T00:56:08.487Z,18.98
2018-12-03T00:58:46.232Z,19.03
2018-12-03T01:01:22.006Z,18.94
2018-12-03T01:03:57.606Z,18.79
2018-12-03T01:06:32.062Z,18.79
2018-12-03T01:09:10.934Z,18.76
2018-12-03T01:11:48.240Z,18.95
2018-12-03T01:14:24.536Z,19.00
2018-12-03T01:17:02.871Z,19.04
2018-12-03T01:19:43.142Z,18.85
2018-12-03T01:22:18.411Z,18.68
2018-12-03T01:24:52.450Z,18.62
2018-12-03T01:27:29.820Z,18.58
2018-12-03T01:30:04.214Z,18.75
2018-12-03T01:32:38.553Z,18.73
2018-12-03T01:35:13.130Z,18.88
2018-12-03T01:37:47.538Z,18.96
2018-12-03T01:40:27.286Z,19.35
2018-12-03T01:43:04.810Z,19.65
2018-12-03T01:45:39.802Z,19.55
2018-12-03T01:48:15.063Z,19.77
2018-12-03T01:50:50.113Z,19.83
2018-12-03T01:53:27.051Z,19.67
2018-12-03T01:56:09.738Z,19.44
2018-12-03T01:58:44.795Z,19.31
2018-12-03T02:01:19.519Z,19.29
2018-12-03T02:03:52.043Z,19.53
2018-12-03T02:06:27.864Z,19.51
2018-12-03T02:09:03.881Z,19.09
2018-12-03T02:11:41.167Z,19.15
2018-12-03T02:14:16.773Z,19.16
2018-12-03T02:16:53.034Z,19.40
2018-12-03T02:19:33.551Z,19.28
2018-12-03T02:22:10.677Z,19.69
2018-12-03T02:29:18.744Z,19.81
2018-12-03T02:31:52.756Z,19.74
2018-12-03T02:34:31.604Z,19.64
2018-12-03T02:37:10.775Z,19.52
2018-12-03T02:39:48.189Z,19.55
2018-12-03T02:42:26.341Z,19.45
2018-12-03T02:45:03.601Z,19.48
2018-12-03T02:47:41.194Z,19.53
2018-12-03T02:50:19.909Z,19.49
2018-12-03T02:52:57.127Z,19.43
2018-12-03T02:55:36.977Z,19.49
2018-12-03T02:58:10.776Z,19.10
2018-12-03T03:00:47.769Z,19.19
2018-12-03T03:03:26.784Z,18.92
2018-12-03T03:05:58.859Z,18.93
2018-12-03T03:08:37.625Z,18.87
2018-12-03T03:11:11.933Z,18.80
2018-12-03T03:13:51.049Z,18.85
2018-12-03T03:16:24.590Z,18.85
2018-12-03T03:19:03.909Z,18.88
2018-12-03T03:21:42.354Z,18.78
2018-12-03T03:24:19.822Z,18.79
2018-12-03T03:26:54.183Z,18.92
2018-12-03T03:29:35.468Z,19.02
2018-12-03T03:32:11.584Z,19.01
2018-12-03T03:34:46.545Z,19.20
2018-12-03T03:37:21.985Z,19.10
2018-12-03T03:39:57.786Z,19.05
2018-12-03T03:42:37.970Z,19.00
2018-12-03T03:45:18.948Z,19.34
2018-12-03T03:47:53.337Z,19.31
2018-12-03T03:50:31.371Z,19.42
2018-12-03T03:53:05.167Z,19.53
2018-12-03T03:55:41.276Z,19.49
2018-12-03T03:58:17.073Z,19.70
2018-12-03T04:01:02.073Z,19.38
2018-12-03T04:03:40.900Z,19.35
2018-12-03T04:06:13.975Z,19.21
2018-12-03T04:08:48.795Z,19.22
2018-12-03T04:14:04.222Z,19.06
2018-12-03T04:16:39.953Z,18.95
2018-12-03T04:19:15.139Z,19.17
2018-12-03T04:22:05.640Z,19.34
2018-12-03T04:24:40.146Z,19.36
2018-12-03T04:27:19.524Z,19.25
2018-12-03T04:29:55.713Z,18.99
2018-12-03T04:32:36.589Z,18.69
2018-12-03T04:35:16.298Z,18.76
2018-12-03T04:37:53.018Z,18.90
2018-12-03T04:40:31.821Z,18.89
2018-12-03T04:43:10.451Z,18.73
2018-12-03T04:45:45.014Z,18.67
2018-12-03T04:48:20.620Z,18.77
2018-12-03T04:50:57.012Z,18.81
2018-12-03T04:53:32.762Z,18.72
2018-12-03T04:56:06.318Z,18.46
2018-12-03T04:58:39.431Z,18.50
2018-12-03T05:04:00.172Z,18.87
2018-12-03T05:06:33.164Z,18.96
2018-12-03T05:09:12.123Z,19.09
2018-12-03T05:11:53.654Z,19.13
2018-12-03T05:14:33.634Z,18.86
2018-12-03T05:17:08.902Z,18.72
2018-12-03T05:19:47.370Z,18.75
2018-12-03T05:22:24.915Z,18.84
2018-12-03T05:25:02.336Z,18.95
2018-12-03T05:27:37.505Z,19.13
2018-12-03T05:30:21.871Z,18.99
2018-12-03T05:32:56.001Z,18.89
2018-12-03T05:35:34.544Z,18.88
2018-12-03T05:38:10.995Z,18.85
2018-12-03T05:40:50.701Z,18.86
2018-12-03T05:43:26.327Z,19.08
2018-12-03T05:46:06.358Z,19.15
2018-12-03T05:48:41.518Z,18.93
2018-12-03T05:51:18.146Z,18.93
2018-12-03T05:53:53.882Z,19.09
2018-12-03T05:56:35.406Z,18.93
2018-12-03T05:59:09.475Z,18.83
2018-12-03T06:01:48.526Z,18.87
2018-12-03T06:04:25.511Z,18.84
2018-12-03T06:07:02.628Z,18.81
2018-12-03T06:09:36.930Z,18.74
2018-12-03T06:12:11.423Z,18.82
2018-12-03T06:14:50.271Z,19.01
2018-12-03T06:17:25.478Z,18.96
2018-12-03T06:20:04.526Z,19.09
2018-12-03T06:22:40.930Z,19.17
2018-12-03T06:25:21.503Z,19.25
2018-12-03T06:27:56.931Z,19.29
2018-12-03T06:30:36.682Z,19.33
2018-12-03T06:36:29.562Z,19.51
2018-12-03T06:39:06.995Z,19.60
2018-12-03T06:41:48.603Z,19.58
2018-12-03T06:44:22.752Z,19.72
2018-12-03T06:46:59.123Z,19.98
2018-12-03T06:49:36.598Z,20.03
2018-12-03T06:55:01.415Z,20.10
2018-12-03T06:57:43.002Z,20.33
2018-12-03T07:00:34.495Z,20.27
2018-12-03T07:03:09.678Z,20.50
2018-12-03T07:05:51.950Z,20.33
2018-12-03T07:08:28.914Z,20.14
2018-12-03T07:11:03.942Z,20.10
2018-12-03T07:13:43.355Z,20.09
2018-12-03T07:16:24.522Z,20.07
2018-12-03T07:19:01.959Z,19.94
2018-12-03T07:21:41.694Z,20.08
2018-12-03T07:24:23.079Z,20.02
2018-12-03T07:27:02.861Z,19.96
2018-12-03T07:29:44.387Z,20.01
2018-12-03T07:32:22.782Z,20.01
2018-12-03T07:35:01.633Z,19.78
2018-12-03T07:37:37.672Z,19.81
2018-12-03T07:40:17.102Z,19.65
2018-12-03T07:43:15.879Z,19.82
2018-12-03T07:45:51.246Z,19.62
2018-12-03T07:48:28.468Z,19.59
2018-12-03T07:51:10.372Z,19.54
2018-12-03T07:53:49.706Z,19.79
2018-12-03T07:56:34.160Z,19.94
2018-12-03T07:59:13.128Z,20.06
2018-12-03T08:01:50.335Z,19.94
2018-12-03T08:04:31.446Z,19.92
2018-12-03T08:07:11.453Z,20.11
2018-12-03T08:09:47.378Z,20.00
2018-12-03T08:12:25.275Z,19.76
2018-12-03T08:15:13.481Z,19.79
2018-12-03T08:18:00.999Z,19.69
2018-12-03T08:20:47.601Z,19.91
2018-12-03T08:24:34.693Z,19.99
2018-12-03T08:27:19.309Z,19.96
2018-12-03T08:30:02.271Z,19.85
2018-12-03T08:32:42.858Z,19.95
2018-12-03T08:35:24.366Z,20.09
2018-12-03T08:38:06.962Z,20.02
2018-12-03T08:40:46.584Z,20.12
2018-12-03T08:43:31.626Z,20.10
2018-12-03T08:46:13.002Z,19.87
2018-12-03T08:48:52.974Z,19.80
2018-12-03T08:54:24.818Z,19.75
2018-12-03T08:57:08.070Z,19.77
2018-12-03T08:59:57.497Z,19.82
2018-12-03T09:02:37.226Z,19.85
2018-12-03T09:05:13.791Z,20.20
2018-12-03T09:07:56.443Z,20.28
2018-12-03T09:14:17.376Z,20.57
2018-12-03T09:17:02.549Z,20.76
2018-12-03T09:19:43.926Z,20.96
2018-12-03T09:22:24.381Z,21.21
2018-12-03T09:25:03.460Z,21.22
2018-12-03T09:30:27.722Z,21.13
2018-12-03T09:33:07.158Z,21.17
2018-12-03T09:35:58.647Z,21.12
2018-12-03T09:38:37.610Z,21.07
2018-12-03T09:41:19.093Z,21.13
2018-12-03T09:44:01.663Z,20.86
2018-12-03T09:46:39.166Z,20.94
2018-12-03T09:49:27.235Z,21.01
2018-12-03T09:52:04.346Z,20.84
2018-12-03T09:54:39.971Z,20.76
2018-12-03T09:57:19.248Z,20.84
2018-12-03T09:59:54.734Z,20.96
2018-12-03T10:02:41.271Z,20.93
2018-12-03T10:05:14.438Z,20.96
2018-12-03T10:07:49.802Z,20.70
2018-12-03T10:10:32.346Z,20.53
2018-12-03T10:13:34.446Z,20.55
2018-12-03T10:16:16.626Z,20.53
2018-12-03T10:30:56.664Z,20.47
2018-12-03T10:36:39.832Z,20.25
2018-12-03T10:39:22.734Z,20.22
2018-12-03T10:42:08.386Z,20.56
2018-12-03T10:44:50.022Z,20.51
2018-12-03T10:47:26.607Z,20.64
2018-12-03T10:50:04.239Z,20.68
2018-12-03T10:52:45.502Z,20.68
2018-12-03T10:55:27.130Z,20.73
2018-12-03T10:58:03.483Z,20.68
2018-12-03T11:03:40.291Z,20.48
2018-12-03T11:06:23.364Z,20.47
2018-12-03T11:09:01.179Z,20.54
2018-12-03T11:11:38.606Z,20.64
2018-12-03T11:14:16.834Z,20.47
2018-12-03T11:16:55.443Z,20.46
2018-12-03T11:19:41.982Z,20.41
2018-12-03T11:22:19.414Z,20.34
2018-12-03T11:25:02.046Z,20.47
2018-12-03T11:27:48.855Z,20.30
2018-12-03T11:30:34.406Z,20.56
2018-12-03T11:33:12.788Z,20.44
2018-12-03T11:35:55.222Z,20.35
2018-12-03T11:38:43.932Z,20.38
2018-12-03T11:41:19.309Z,20.30
2018-12-03T11:44:01.409Z,20.51
2018-12-03T11:46:39.977Z,20.59
2018-12-03T11:52:17.041Z,20.28
2018-12-03T11:54:56.416Z,20.09
2018-12-03T11:57:35.189Z,20.25
2018-12-03T12:00:18.992Z,20.23
2018-12-03T12:02:58.985Z,20.17
2018-12-03T12:05:38.146Z,20.43
2018-12-03T12:08:27.063Z,20.52
2018-12-03T12:11:11.754Z,20.69
2018-12-03T12:13:46.950Z,20.42
2018-12-03T12:16:35.417Z,20.37
2018-12-03T12:19:13.891Z,20.32
2018-12-03T12:21:56.078Z,20.28
2018-12-03T12:29:41.872Z,20.13
2018-12-03T12:32:22.026Z,20.14
2018-12-03T12:34:57.727Z,20.22
2018-12-03T12:40:57.272Z,20.15
2018-12-03T12:43:39.635Z,19.92
2018-12-03T12:46:23.716Z,19.94
2018-12-03T12:51:42.479Z,19.90
2018-12-03T12:54:23.217Z,19.73
2018-12-03T12:57:07.355Z,19.77
2018-12-03T13:02:32.779Z,19.78
2018-12-03T13:05:20.436Z,19.61
2018-12-03T13:08:04.378Z,19.36
2018-12-03T13:10:41.198Z,19.49
2018-12-03T13:13:21.083Z,19.58
2018-12-03T13:15:58.577Z,19.46
2018-12-03T13:18:35.374Z,19.47
2018-12-03T13:21:12.047Z,19.31
2018-12-03T13:23:55.166Z,19.12
2018-12-03T13:26:34.225Z,19.19
2018-12-03T13:29:16.823Z,19.08
2018-12-03T13:32:05.842Z,19.32
2018-12-03T13:34:52.338Z,19.50
2018-12-03T13:37:39.819Z,19.40
2018-12-03T13:40:37.482Z,19.80
2018-12-03T13:43:27.775Z,19.53
2018-12-03T13:46:15.588Z,19.45
2018-12-03T13:52:00.803Z,19.55
2018-12-03T13:54:42.052Z,19.49
2018-12-03T13:57:21.312Z,19.41
2018-12-03T13:59:59.883Z,19.43
2018-12-03T14:02:37.960Z,19.21
2018-12-03T14:05:22.414Z,19.23
2018-12-03T14:08:08.494Z,19.35
2018-12-03T14:13:00.340Z,19.20
2018-12-03T14:19:30.959Z,19.22
2018-12-03T14:22:11.528Z,18.99
2018-12-03T14:24:50.225Z,19.01
2018-12-03T14:27:29.362Z,19.13
2018-12-03T14:30:16.378Z,18.97
2018-12-03T14:32:51.455Z,18.94
2018-12-03T14:35:30.190Z,18.90
2018-12-03T14:38:06.634Z,18.94
2018-12-03T14:40:44.551Z,18.78
2018-12-03T14:43:19.028Z,18.63
2018-12-03T14:45:58.575Z,18.52
2018-12-03T14:48:41.549Z,18.65
2018-12-03T14:51:20.903Z,18.71
2018-12-03T14:54:05.951Z,18.79
2018-12-03T14:56:47.503Z,18.54
2018-12-03T14:59:26.260Z,18.81
2018-12-03T15:02:04.409Z,18.84
2018-12-03T15:04:46.692Z,18.82
2018-12-03T15:07:40.572Z,18.54
2018-12-03T15:10:39.825Z,18.63
2018-12-03T15:13:25.265Z,18.46
2018-12-03T15:19:18.648Z,18.48
2018-12-03T15:22:01.163Z,18.33
2018-12-03T15:31:07.089Z,18.44
2018-12-03T15:33:53.554Z,18.44
2018-12-03T15:36:54.039Z,18.29
2018-12-03T15:45:50.463Z,18.40
2018-12-03T15:48:33.369Z,18.33
2018-12-03T15:51:12.299Z,18.39
2018-12-03T15:53:49.504Z,18.57
2018-12-03T15:56:31.410Z,18.48
2018-12-03T15:59:14.157Z,18.63
2018-12-03T16:01:51.196Z,18.61
2018-12-03T16:04:32.495Z,18.53
2018-12-03T16:07:17.056Z,18.37
2018-12-03T16:09:58.429Z,18.40
2018-12-03T16:12:39.909Z,18.35
2018-12-03T16:15:25.324Z,18.53
2018-12-03T16:18:06.055Z,18.43
2018-12-03T16:20:42.572Z,18.37
2018-12-03T16:23:24.095Z,18.32
2018-12-03T16:26:05.754Z,18.23
2018-12-03T16:28:51.952Z,18.19
2018-12-03T16:31:34.986Z,18.04
2018-12-03T16:34:17.166Z,18.10
2018-12-03T16:39:38.016Z,17.97
2018-12-03T16:42:17.662Z,18.24
2018-12-03T16:44:59.195Z,18.45
2018-12-03T16:47:37.695Z,18.40
2018-12-03T16:50:17.196Z,18.65
2018-12-03T16:55:41.336Z,18.69
2018-12-03T16:58:21.226Z,18.74
2018-12-03T17:01:05.828Z,19.08
2018-12-03T17:03:41.849Z,18.94
2018-12-03T17:06:26.126Z,19.03
2018-12-03T17:09:11.367Z,19.34
2018-12-03T17:11:54.678Z,19.60
2018-12-03T17:14:31.654Z,19.39
2018-12-03T17:17:10.124Z,19.27
2018-12-03T17:19:43.307Z,19.30
2018-12-03T17:22:36.865Z,19.22
2018-12-03T17:25:21.480Z,19.15
2018-12-03T17:30:48.759Z,19.12
2018-12-03T17:33:28.212Z,19.08
2018-12-03T17:36:04.683Z,19.35
2018-12-03T17:38:46.931Z,19.51
2018-12-03T17:41:24.002Z,19.53
2018-12-03T17:44:03.555Z,19.50
2018-12-03T17:46:50.422Z,19.78
2018-12-03T17:49:32.490Z,19.66
2018-12-03T17:52:17.451Z,19.80
2018-12-03T17:54:58.201Z,19.76
2018-12-03T17:57:38.308Z,19.62
2018-12-03T18:00:22.884Z,19.57
2018-12-03T18:03:08.331Z,19.47
2018-12-03T18:08:36.996Z,19.40
2018-12-03T18:11:11.308Z,19.34
2018-12-03T18:13:49.294Z,19.28
2018-12-03T18:19:20.074Z,19.13
2018-12-03T18:24:41.274Z,19.27
2018-12-03T18:30:00.247Z,19.36
2018-12-03T18:32:36.223Z,19.40
2018-12-03T18:35:18.735Z,19.37
2018-12-03T18:38:01.420Z,19.29
2018-12-03T18:40:41.535Z,19.20
2018-12-03T18:43:19.243Z,19.23
2018-12-03T18:46:00.224Z,19.30
2018-12-03T18:48:40.538Z,19.20
2018-12-03T18:51:23.599Z,19.16
2018-12-03T18:54:07.275Z,19.14
2018-12-03T18:56:43.461Z,19.13
2018-12-03T18:59:44.460Z,19.13
2018-12-03T19:02:28.312Z,19.15
2018-12-03T19:05:08.611Z,19.07
2018-12-03T19:07:48.464Z,19.15
2018-12-03T19:10:29.559Z,19.15
2018-12-03T19:18:31.325Z,19.30
2018-12-03T19:26:39.435Z,19.50
2018-12-03T19:29:18.377Z,19.46
2018-12-03T19:31:57.594Z,19.57
2018-12-03T19:34:49.295Z,19.52
2018-12-03T19:37:28.956Z,19.40
2018-12-03T19:40:07.807Z,19.39
2018-12-03T19:42:42.270Z,19.42
2018-12-03T19:45:25.513Z,19.46
2018-12-03T19:48:03.121Z,19.47
2018-12-03T19:50:37.471Z,19.41
2018-12-03T19:53:15.735Z,19.19
2018-12-03T19:58:43.484Z,18.98
2018-12-03T20:01:15.903Z,18.90
2018-12-03T20:06:43.699Z,18.74
2018-12-03T20:09:22.550Z,18.47
2018-12-03T20:12:01.542Z,18.71
2018-12-03T20:14:48.267Z,18.77
2018-12-03T20:17:38.836Z,18.82
2018-12-03T20:20:50.710Z,18.54
2018-12-03T20:23:27.540Z,18.39
2018-12-03T20:26:08.261Z,18.34
2018-12-03T20:30:59.150Z,18.33
2018-12-03T20:33:39.179Z,18.26
2018-12-03T20:38:25.041Z,18.06
2018-12-03T20:42:07.832Z,18.22
2018-12-03T20:44:47.481Z,18.38
2018-12-03T20:47:31.966Z,18.38
2018-12-03T20:50:32.510Z,18.43
2018-12-03T20:53:06.570Z,18.49
2018-12-03T20:55:47.324Z,18.36
2018-12-03T20:58:20.535Z,18.36
2018-12-03T21:00:53.955Z,18.48
2018-12-03T21:03:27.631Z,18.33
2018-12-03T21:06:00.202Z,18.09
2018-12-03T21:08:33.815Z,18.09
2018-12-03T21:11:20.625Z,17.85
2018-12-03T21:13:53.443Z,17.89
2018-12-03T21:16:24.418Z,17.88
2018-12-03T21:18:55.165Z,17.97
2018-12-03T21:21:28.101Z,17.96
2018-12-03T21:23:59.399Z,17.88
2018-12-03T21:26:31.597Z,18.00
2018-12-03T21:29:05.767Z,18.07
2018-12-03T21:31:38.573Z,17.86
2018-12-03T21:34:09.645Z,17.73
2018-12-03T21:36:41.766Z,17.73
2018-12-03T21:39:13.830Z,17.80
2018-12-03T21:41:46.325Z,17.94
2018-12-03T21:44:18.624Z,17.89
2018-12-03T21:46:51.249Z,17.68
2018-12-03T21:49:24.693Z,17.65
2018-12-03T21:52:02.108Z,17.79
2018-12-03T21:54:35.049Z,17.78
2018-12-03T21:57:10.940Z,17.76
2018-12-03T21:59:44.231Z,17.81
2018-12-03T22:02:17.772Z,18.02
2018-12-03T22:04:53.433Z,18.06
2018-12-03T22:07:27.576Z,17.88
2018-12-03T22:10:01.901Z,17.85
2018-12-03T22:12:39.922Z,17.67
2018-12-03T22:15:16.814Z,17.65
2018-12-03T22:17:49.711Z,17.64
2018-12-03T22:20:28.093Z,17.55
2018-12-03T22:23:01.020Z,17.55
2018-12-03T22:25:37.799Z,17.83
2018-12-03T22:28:10.170Z,17.75
2018-12-03T22:30:43.425Z,17.73
2018-12-03T22:33:16.906Z,17.85
2018-12-03T22:35:49.315Z,17.97
2018-12-03T22:38:21.750Z,18.24
2018-12-03T22:40:54.480Z,18.24
2018-12-03T22:43:28.986Z,18.38
2018-12-03T22:46:02.324Z,18.57
2018-12-03T22:48:35.334Z,18.45
2018-12-03T22:51:10.664Z,18.40
2018-12-03T22:53:44.667Z,18.56
2018-12-03T22:56:20.070Z,18.68
2018-12-03T22:58:56.472Z,18.59
2018-12-03T23:01:32.209Z,18.48
2018-12-03T23:04:06.211Z,18.44
2018-12-03T23:06:40.658Z,18.48
2018-12-03T23:09:13.362Z,18.59
2018-12-03T23:11:46.199Z,18.59
2018-12-03T23:14:18.213Z,18.73
2018-12-03T23:16:51.671Z,18.65
2018-12-03T23:19:27.624Z,18.58
2018-12-03T23:21:59.863Z,18.35
2018-12-03T23:24:31.622Z,18.41
2018-12-03T23:27:08.784Z,18.20
2018-12-03T23:29:41.008Z,18.20
2018-12-03T23:32:13.730Z,18.00
2018-12-03T23:34:46.033Z,17.98
2018-12-03T23:37:19.121Z,18.07
2018-12-03T23:39:53.303Z,18.11
2018-12-03T23:42:28.117Z,18.07
2018-12-03T23:45:00.629Z,18.02
2018-12-03T23:47:32.886Z,18.11
2018-12-03T23:50:05.751Z,18.09
2018-12-03T23:52:37.881Z,18.07
2018-12-03T23:55:09.287Z,18.06
2018-12-03T23:57:41.403Z,17.99
